Terminal Aerodrome Forecast
Issued by NWS Twin Cities, MN

Home | Current Version | Previous Version | Text Only | Print | Product List | Glossary Off
Versions: 1 2 3 4 5 6 7 8 9 10 11 12 13 14 15 16 17 18 19 20 21 22 23 24 25 26

000
FTUS43 KMPX 011300 AAA
TAFEAU
TAF AMD
KEAU 011316Z 0113/0212 13010KT 6SM -SHRA BR BKN009 OVC020
     FM011500 14011KT 4SM -RA BR OVC009
     FM012300 15009KT P6SM -SHRA SCT014 OVC020
     FM020300 17004KT 3SM BR OVC005
     FM020600 VRB02KT 1SM BR VV003
     FM020800 00000KT 1/4SM FG VV001=

USA.gov is the U.S. government's official web portal to all federal, state and local government web resources and services.